createdAt,value
2023-02-13T00:00:30.739Z,9.56
2023-02-13T00:01:11.693Z,9.42
2023-02-13T00:01:51.788Z,9.39
2023-02-13T00:02:31.759Z,9.39
2023-02-13T00:03:12.830Z,9.52
2023-02-13T00:03:52.796Z,9.49
2023-02-13T00:04:32.766Z,9.62
2023-02-13T00:05:13.699Z,9.53
2023-02-13T00:05:53.823Z,9.57
2023-02-13T00:06:33.713Z,9.52
2023-02-13T00:07:15.761Z,9.47
2023-02-13T00:07:55.726Z,9.56
2023-02-13T00:08:35.823Z,9.55
2023-02-13T00:09:17.750Z,9.50
2023-02-13T00:09:57.781Z,9.69
2023-02-13T00:10:38.674Z,9.67
2023-02-13T00:11:18.871Z,9.73
2023-02-13T00:12:01.333Z,9.69
2023-02-13T00:12:41.847Z,9.72
2023-02-13T00:13:22.743Z,9.84
2023-02-13T00:14:02.804Z,9.81
2023-02-13T00:14:44.741Z,9.66
2023-02-13T00:15:25.841Z,9.73
2023-02-13T00:16:08.774Z,9.80
2023-02-13T00:16:48.776Z,9.90
2023-02-13T00:17:28.715Z,9.87
2023-02-13T00:18:09.753Z,10.01
2023-02-13T00:18:49.917Z,10.02
2023-02-13T00:19:30.768Z,9.81
2023-02-13T00:20:12.694Z,10.02
2023-02-13T00:20:52.850Z,9.72
2023-02-13T00:21:32.672Z,9.98
2023-02-13T00:22:12.838Z,9.86
2023-02-13T00:22:52.826Z,9.91
2023-02-13T00:23:33.807Z,9.78
2023-02-13T00:24:13.680Z,9.85
2023-02-13T00:24:53.759Z,9.71
2023-02-13T00:25:34.736Z,9.81
2023-02-13T00:26:21.766Z,9.70
2023-02-13T00:27:01.685Z,9.74
2023-02-13T00:30:12.721Z,9.80
2023-02-13T00:31:17.077Z,9.85
2023-02-13T00:32:03.823Z,9.82
2023-02-13T00:32:37.817Z,9.82
2023-02-13T00:33:24.689Z,9.85
2023-02-13T00:34:05.720Z,9.84
2023-02-13T00:34:45.667Z,9.88
2023-02-13T00:35:32.739Z,9.92
2023-02-13T00:36:17.142Z,9.92
2023-02-13T00:37:03.655Z,9.68
2023-02-13T00:37:37.435Z,9.69
2023-02-13T00:38:24.690Z,9.55
2023-02-13T00:38:58.355Z,9.75
2023-02-13T00:39:45.647Z,9.53
2023-02-13T00:40:19.415Z,9.53
2023-02-13T00:40:59.820Z,9.61
2023-02-13T00:41:33.788Z,9.68
2023-02-13T00:42:07.404Z,9.67
2023-02-13T00:42:47.664Z,9.71
2023-02-13T00:43:21.734Z,9.66
2023-02-13T00:43:55.371Z,9.65
2023-02-13T00:44:36.661Z,9.61
2023-02-13T00:45:10.782Z,9.61
2023-02-13T00:45:44.351Z,9.55
2023-02-13T00:46:25.749Z,9.62
2023-02-13T00:46:59.802Z,9.66
2023-02-13T00:47:33.427Z,9.54
2023-02-13T00:48:13.695Z,9.57
2023-02-13T00:48:47.765Z,9.68
2023-02-13T00:49:21.412Z,9.67
2023-02-13T00:50:01.714Z,9.82
2023-02-13T00:50:35.679Z,9.82
2023-02-13T00:51:09.952Z,9.84
2023-02-13T00:51:49.780Z,9.87
2023-02-13T00:52:23.748Z,9.59
2023-02-13T00:52:58.378Z,9.81
2023-02-13T00:53:40.602Z,9.90
2023-02-13T00:54:14.930Z,9.78
2023-02-13T00:54:48.647Z,9.88
2023-02-13T00:55:28.664Z,9.93
2023-02-13T00:56:02.742Z,9.89
2023-02-13T00:56:36.404Z,9.96
2023-02-13T00:57:17.677Z,9.88
2023-02-13T00:57:51.710Z,9.87
2023-02-13T00:58:25.461Z,9.90
2023-02-13T00:59:05.746Z,9.80
2023-02-13T00:59:39.665Z,9.74
2023-02-13T01:00:14.310Z,9.78
2023-02-13T01:00:54.665Z,9.84
2023-02-13T01:01:35.767Z,9.79
2023-02-13T01:02:15.656Z,9.68
2023-02-13T01:02:55.650Z,9.62
2023-02-13T01:03:29.820Z,9.75
2023-02-13T01:04:03.496Z,9.67
2023-02-13T01:04:43.632Z,9.71
2023-02-13T01:05:17.695Z,9.74
2023-02-13T01:05:52.923Z,9.68
2023-02-13T01:06:32.630Z,9.70
2023-02-13T01:07:06.712Z,9.70
2023-02-13T01:07:46.692Z,9.88
2023-02-13T01:08:28.557Z,9.63
2023-02-13T01:09:10.628Z,9.73
2023-02-13T01:09:51.794Z,9.70
2023-02-13T01:10:32.622Z,9.85
2023-02-13T01:11:13.752Z,9.82
2023-02-13T01:11:53.918Z,9.83
2023-02-13T01:12:33.724Z,9.79
2023-02-13T01:13:14.732Z,9.76
2023-02-13T01:13:55.807Z,9.50
2023-02-13T01:14:35.656Z,9.67
2023-02-13T01:15:16.721Z,9.74
2023-02-13T01:15:57.639Z,9.50
2023-02-13T01:16:37.736Z,9.51
2023-02-13T01:17:17.610Z,9.47
2023-02-13T01:18:01.714Z,9.46
2023-02-13T01:18:41.659Z,9.56
2023-02-13T01:19:21.726Z,9.44
2023-02-13T01:20:01.684Z,9.38
2023-02-13T01:20:41.691Z,9.43
2023-02-13T01:21:27.650Z,9.38
2023-02-13T01:22:08.732Z,9.36
2023-02-13T01:22:50.643Z,9.29
2023-02-13T01:23:30.905Z,9.45
2023-02-13T01:24:12.645Z,9.37
2023-02-13T01:24:52.725Z,9.42
2023-02-13T01:25:33.656Z,9.35
2023-02-13T01:26:15.687Z,9.39
2023-02-13T01:26:55.678Z,9.36
2023-02-13T01:27:38.167Z,9.42
2023-02-13T01:28:18.692Z,9.38
2023-02-13T01:29:00.859Z,9.46
2023-02-13T01:29:40.611Z,9.59
2023-02-13T01:30:24.696Z,9.63
2023-02-13T01:31:05.752Z,9.45
2023-02-13T01:31:45.816Z,9.55
2023-02-13T01:32:25.650Z,9.35
2023-02-13T01:33:05.674Z,9.48
2023-02-13T01:33:45.623Z,9.39
2023-02-13T01:34:26.748Z,9.23
2023-02-13T01:35:06.686Z,9.14
2023-02-13T01:35:46.716Z,9.11
2023-02-13T01:36:26.599Z,9.09
2023-02-13T01:37:06.692Z,9.20
2023-02-13T01:37:46.616Z,9.30
2023-02-13T01:38:27.648Z,9.22
2023-02-13T01:39:07.630Z,9.19
2023-02-13T01:39:47.795Z,9.15
2023-02-13T01:40:27.731Z,9.15
2023-02-13T01:41:07.832Z,9.24
2023-02-13T01:41:47.606Z,9.11
2023-02-13T01:42:34.650Z,9.23
2023-02-13T01:43:17.613Z,9.06
2023-02-13T01:44:04.702Z,9.16
2023-02-13T01:45:22.614Z,9.13
2023-02-13T01:46:03.601Z,9.10
2023-02-13T01:46:44.728Z,9.20
2023-02-13T01:47:41.270Z,9.10
2023-02-13T01:48:27.592Z,9.03
2023-02-13T01:49:06.806Z,9.13
2023-02-13T01:49:41.354Z,9.03
2023-02-13T01:50:32.602Z,8.97
2023-02-13T01:51:18.616Z,9.01
2023-02-13T01:51:54.767Z,8.96
2023-02-13T01:52:42.737Z,8.93
2023-02-13T01:53:26.553Z,9.02
2023-02-13T01:54:14.579Z,9.08
2023-02-13T01:54:48.408Z,8.96
2023-02-13T01:55:35.656Z,9.00
2023-02-13T01:56:49.643Z,9.05
2023-02-13T01:57:44.839Z,9.04
2023-02-13T01:58:44.560Z,8.76
2023-02-13T01:59:45.574Z,8.98
2023-02-13T02:00:39.615Z,9.03
2023-02-13T02:01:34.805Z,9.00
2023-02-13T02:02:15.752Z,9.03
2023-02-13T02:03:09.274Z,8.84
2023-02-13T02:03:56.566Z,8.86
2023-02-13T02:04:42.639Z,9.03
2023-02-13T02:05:24.575Z,9.00
2023-02-13T02:06:05.684Z,8.98
2023-02-13T02:06:54.573Z,9.06
2023-02-13T02:07:36.591Z,9.04
2023-02-13T02:08:14.724Z,9.13
2023-02-13T02:09:04.572Z,8.84
2023-02-13T02:09:44.194Z,9.09
2023-02-13T02:10:31.567Z,9.08
2023-02-13T02:11:37.604Z,8.96
2023-02-13T02:12:40.595Z,8.97
2023-02-13T02:13:22.747Z,9.13
2023-02-13T02:14:10.617Z,9.02
2023-02-13T02:14:45.654Z,9.04
2023-02-13T02:15:33.580Z,8.88
2023-02-13T02:16:07.766Z,9.11
2023-02-13T02:16:54.570Z,9.10
2023-02-13T02:17:30.653Z,9.10
2023-02-13T02:18:20.782Z,9.03
2023-02-13T02:19:00.667Z,9.01
2023-02-13T02:20:19.567Z,9.13
2023-02-13T02:21:26.605Z,9.17
2023-02-13T02:22:09.598Z,9.12
2023-02-13T02:23:29.555Z,9.13
2023-02-13T02:25:00.601Z,9.05
2023-02-13T02:26:34.609Z,9.24
2023-02-13T02:27:38.558Z,9.14
2023-02-13T02:29:04.607Z,9.27
2023-02-13T02:30:27.582Z,9.27
2023-02-13T02:32:18.572Z,9.40
2023-02-13T02:33:31.570Z,9.43
2023-02-13T02:35:06.587Z,9.23
2023-02-13T02:36:26.797Z,9.16
2023-02-13T02:37:50.560Z,9.21
2023-02-13T02:39:08.611Z,9.06
2023-02-13T02:40:22.563Z,9.27
2023-02-13T02:41:40.212Z,9.23
2023-02-13T02:42:43.578Z,9.21
2023-02-13T02:43:44.628Z,9.28
2023-02-13T02:44:50.534Z,9.28
2023-02-13T02:45:56.641Z,9.08
2023-02-13T02:47:01.512Z,9.31
2023-02-13T02:48:22.543Z,9.18
2023-02-13T02:49:33.526Z,9.26
2023-02-13T02:50:44.522Z,9.30
2023-02-13T02:51:57.575Z,9.22
2023-02-13T02:52:50.634Z,9.07
2023-02-13T02:54:36.568Z,9.08
2023-02-13T02:56:05.678Z,9.12
2023-02-13T02:56:48.524Z,9.09
2023-02-13T02:57:57.561Z,9.01
2023-02-13T02:59:00.076Z,9.02
2023-02-13T02:59:55.746Z,9.16
2023-02-13T03:00:54.597Z,9.16
2023-02-13T03:01:50.251Z,9.23
2023-02-13T03:02:48.965Z,9.25
2023-02-13T03:03:48.606Z,9.40
2023-02-13T03:05:06.519Z,9.37
2023-02-13T03:06:00.171Z,9.14
2023-02-13T03:07:03.571Z,9.25
2023-02-13T03:07:37.594Z,9.14
2023-02-13T03:08:11.444Z,9.09
2023-02-13T03:09:21.561Z,9.04
2023-02-13T03:10:17.985Z,9.32
2023-02-13T03:11:10.890Z,9.19
2023-02-13T03:12:14.515Z,9.32
2023-02-13T03:13:21.630Z,9.27
2023-02-13T03:13:55.794Z,9.34
2023-02-13T03:14:36.539Z,9.41
2023-02-13T03:15:11.545Z,9.27
2023-02-13T03:16:05.159Z,9.22
2023-02-13T03:17:04.496Z,9.19
2023-02-13T03:17:57.249Z,9.12
2023-02-13T03:18:53.979Z,9.29
2023-02-13T03:20:12.593Z,9.12
2023-02-13T03:21:27.404Z,9.17
2023-02-13T03:22:18.873Z,9.41
2023-02-13T03:23:41.528Z,9.53
2023-02-13T03:24:34.591Z,9.28
2023-02-13T03:25:36.521Z,9.24
2023-02-13T03:26:46.289Z,9.29
2023-02-13T03:28:22.531Z,9.50
2023-02-13T03:29:47.428Z,9.43
2023-02-13T03:31:06.610Z,9.33
2023-02-13T03:32:03.554Z,9.22
2023-02-13T03:32:54.488Z,9.29
2023-02-13T03:33:51.569Z,8.91
2023-02-13T03:35:05.498Z,9.05
2023-02-13T03:36:06.063Z,8.84
2023-02-13T03:37:21.566Z,9.14
2023-02-13T03:38:29.526Z,9.08
2023-02-13T03:39:45.471Z,9.04
2023-02-13T03:41:14.446Z,8.97
2023-02-13T03:42:19.456Z,9.03
2023-02-13T03:43:17.529Z,8.93
2023-02-13T03:44:39.560Z,9.00
2023-02-13T03:45:46.524Z,9.07
2023-02-13T03:46:26.541Z,9.01
2023-02-13T03:47:09.467Z,9.03
2023-02-13T03:47:51.562Z,8.93
2023-02-13T03:48:51.099Z,9.00
2023-02-13T03:50:12.522Z,9.12
2023-02-13T03:50:50.537Z,9.07
2023-02-13T03:51:49.472Z,8.86
2023-02-13T03:52:45.571Z,9.09
2023-02-13T03:53:26.549Z,9.05
2023-02-13T03:54:11.525Z,9.14
2023-02-13T03:55:16.494Z,9.20
2023-02-13T03:56:15.937Z,9.13
2023-02-13T03:57:16.485Z,9.16
2023-02-13T03:58:19.325Z,9.28
2023-02-13T03:59:20.451Z,9.33
2023-02-13T04:00:02.541Z,9.23
2023-02-13T04:00:57.779Z,9.30
2023-02-13T04:01:41.529Z,9.26
2023-02-13T04:02:26.472Z,9.31
2023-02-13T04:03:31.613Z,9.22
2023-02-13T04:04:21.507Z,9.27
2023-02-13T04:05:20.537Z,9.29
2023-02-13T04:06:08.448Z,9.20
2023-02-13T04:07:07.567Z,9.32
2023-02-13T04:07:47.448Z,9.16
2023-02-13T04:08:27.530Z,9.30
2023-02-13T04:09:07.442Z,9.32
2023-02-13T04:09:49.515Z,9.25
2023-02-13T04:10:25.556Z,9.31
2023-02-13T04:11:34.453Z,9.23
2023-02-13T04:12:26.514Z,9.20
2023-02-13T04:13:33.477Z,9.29
2023-02-13T04:14:14.545Z,9.20
2023-02-13T04:15:28.482Z,9.03
2023-02-13T04:16:09.519Z,9.06
2023-02-13T04:17:22.478Z,9.09
2023-02-13T04:18:05.568Z,9.14
2023-02-13T04:18:52.439Z,9.18
2023-02-13T04:19:27.580Z,9.36
2023-02-13T04:20:15.427Z,9.38
2023-02-13T04:20:56.729Z,9.20
2023-02-13T04:21:53.429Z,9.32
2023-02-13T04:22:47.453Z,9.30
2023-02-13T04:23:41.443Z,9.37
2023-02-13T04:24:35.444Z,9.26
2023-02-13T04:25:31.431Z,9.31
2023-02-13T04:26:28.578Z,9.32
2023-02-13T04:27:02.505Z,9.27
2023-02-13T04:27:50.439Z,9.32
2023-02-13T04:28:24.497Z,9.31
2023-02-13T04:29:12.442Z,9.30
2023-02-13T04:29:46.613Z,9.36
2023-02-13T04:30:33.539Z,9.30
2023-02-13T04:31:07.569Z,9.30
2023-02-13T04:31:48.546Z,9.08
2023-02-13T04:32:29.110Z,9.14
2023-02-13T04:33:09.457Z,9.17
2023-02-13T04:33:49.506Z,9.24
2023-02-13T04:34:29.443Z,9.15
2023-02-13T04:35:11.509Z,9.19
2023-02-13T04:35:52.498Z,9.29
2023-02-13T04:36:32.507Z,9.23
2023-02-13T04:37:12.452Z,9.23
2023-02-13T04:37:52.494Z,9.12
2023-02-13T04:38:32.465Z,9.20
2023-02-13T04:39:12.503Z,9.08
2023-02-13T04:39:53.486Z,9.27
2023-02-13T04:40:33.477Z,9.29
2023-02-13T04:41:13.401Z,9.26
2023-02-13T04:41:53.468Z,9.16
2023-02-13T04:42:33.443Z,9.08
2023-02-13T04:43:13.538Z,9.10
2023-02-13T04:43:54.435Z,9.02
2023-02-13T04:44:34.499Z,9.11
2023-02-13T04:45:15.419Z,9.17
2023-02-13T04:45:56.602Z,9.11
2023-02-13T04:46:36.401Z,9.12
2023-02-13T04:47:17.492Z,9.14
2023-02-13T04:48:00.493Z,9.14
2023-02-13T04:48:40.477Z,9.08
2023-02-13T04:49:21.433Z,9.04
2023-02-13T04:50:01.541Z,8.91
2023-02-13T04:50:41.447Z,8.94
2023-02-13T04:51:21.496Z,8.90
2023-02-13T04:52:02.469Z,9.00
2023-02-13T04:52:42.508Z,9.03
2023-02-13T04:53:22.484Z,9.02
2023-02-13T04:54:02.467Z,9.03
2023-02-13T04:54:42.401Z,9.03
2023-02-13T04:55:22.646Z,9.00
2023-02-13T04:56:03.415Z,9.11
2023-02-13T04:56:43.762Z,9.23
2023-02-13T04:57:23.411Z,9.32
2023-02-13T04:58:03.451Z,9.39
2023-02-13T04:58:43.403Z,9.23
2023-02-13T04:59:23.463Z,9.11
2023-02-13T05:00:04.464Z,9.18
2023-02-13T05:00:44.477Z,9.19
2023-02-13T05:01:25.434Z,9.29
2023-02-13T05:02:05.478Z,9.25
2023-02-13T05:02:46.474Z,9.36
2023-02-13T05:03:26.487Z,9.40
2023-02-13T05:04:07.519Z,9.42
2023-02-13T05:04:47.480Z,9.21
2023-02-13T05:05:28.410Z,9.27
2023-02-13T05:06:08.483Z,9.12
2023-02-13T05:06:49.390Z,9.08
2023-02-13T05:07:29.550Z,8.94
2023-02-13T05:08:11.412Z,9.09
2023-02-13T05:08:51.540Z,8.97
2023-02-13T05:09:32.501Z,9.04
2023-02-13T05:10:13.503Z,9.03
2023-02-13T05:10:54.425Z,8.91
2023-02-13T05:11:34.462Z,8.97
2023-02-13T05:12:15.454Z,9.02
2023-02-13T05:12:55.431Z,8.94
2023-02-13T05:13:35.354Z,8.97
2023-02-13T05:14:17.436Z,8.91
2023-02-13T05:14:57.467Z,8.92
2023-02-13T05:15:37.507Z,8.89
2023-02-13T05:16:18.417Z,8.81
2023-02-13T05:16:58.475Z,8.94
2023-02-13T05:17:38.401Z,8.98
2023-02-13T05:18:18.441Z,8.92
2023-02-13T05:19:01.355Z,8.94
2023-02-13T05:19:41.491Z,9.01
2023-02-13T05:20:22.438Z,9.04
2023-02-13T05:21:20.808Z,9.08
2023-02-13T05:22:19.416Z,9.13
2023-02-13T05:23:20.123Z,9.04
2023-02-13T05:24:00.558Z,9.12
2023-02-13T05:24:41.469Z,9.08
2023-02-13T05:25:21.548Z,9.04
2023-02-13T05:26:01.365Z,9.11
2023-02-13T05:26:35.535Z,9.13
2023-02-13T05:27:22.338Z,9.09
2023-02-13T05:27:56.446Z,8.98
2023-02-13T05:29:02.353Z,9.07
2023-02-13T05:29:36.421Z,9.11
2023-02-13T05:30:23.440Z,8.97
2023-02-13T05:30:57.959Z,9.10
2023-02-13T05:31:45.471Z,9.10
2023-02-13T05:32:19.470Z,9.07
2023-02-13T05:33:06.378Z,9.16
2023-02-13T05:33:40.394Z,9.18
2023-02-13T05:34:29.396Z,9.13
2023-02-13T05:35:04.532Z,9.05
2023-02-13T05:35:44.380Z,9.08
2023-02-13T05:36:24.455Z,9.09
2023-02-13T05:37:05.426Z,9.01
2023-02-13T05:37:45.423Z,9.08
2023-02-13T05:38:26.333Z,9.06
2023-02-13T05:39:07.419Z,9.20
2023-02-13T05:39:47.382Z,9.26
2023-02-13T05:40:27.880Z,9.19
2023-02-13T05:41:09.621Z,9.24
2023-02-13T05:41:50.458Z,9.18
2023-02-13T05:42:31.405Z,9.23
2023-02-13T05:43:11.509Z,9.19
2023-02-13T05:43:51.412Z,9.18
2023-02-13T05:44:31.464Z,9.04
2023-02-13T05:45:12.366Z,9.00
2023-02-13T05:45:52.489Z,9.19
2023-02-13T05:46:33.617Z,9.13
2023-02-13T05:47:13.489Z,9.26
2023-02-13T05:47:53.402Z,9.20
2023-02-13T05:48:33.477Z,9.20
2023-02-13T05:49:15.392Z,9.26
2023-02-13T05:49:55.472Z,9.19
2023-02-13T05:50:36.362Z,9.25
2023-02-13T05:51:16.432Z,9.15
2023-02-13T05:51:58.441Z,9.11
2023-02-13T05:52:38.428Z,9.05
2023-02-13T05:53:18.353Z,8.88
2023-02-13T05:53:58.433Z,9.04
2023-02-13T05:54:39.369Z,9.02
2023-02-13T05:55:19.432Z,9.04
2023-02-13T05:56:00.622Z,9.10
2023-02-13T05:56:40.686Z,9.04
2023-02-13T05:57:20.404Z,9.13
2023-02-13T05:58:04.426Z,9.06
2023-02-13T05:58:45.369Z,9.05
2023-02-13T05:59:25.450Z,9.00
2023-02-13T06:00:05.498Z,9.05
2023-02-13T06:01:00.592Z,9.09
2023-02-13T06:01:54.425Z,9.16
2023-02-13T06:02:41.405Z,9.23
2023-02-13T06:03:15.582Z,9.05
2023-02-13T06:04:04.003Z,9.16
2023-02-13T06:04:38.418Z,9.07
2023-02-13T06:05:25.338Z,9.12
2023-02-13T06:06:00.568Z,9.07
2023-02-13T06:06:47.401Z,9.06
2023-02-13T06:07:21.409Z,9.10
2023-02-13T06:08:01.428Z,9.21
2023-02-13T06:08:42.492Z,9.18
2023-02-13T06:09:22.346Z,9.14
2023-02-13T06:10:02.418Z,9.24
2023-02-13T06:10:45.160Z,9.10
2023-02-13T06:11:26.404Z,9.00
2023-02-13T06:12:06.363Z,9.00
2023-02-13T06:12:46.387Z,8.89
2023-02-13T06:13:26.381Z,8.94
2023-02-13T06:14:06.511Z,9.04
2023-02-13T06:14:47.382Z,8.97
2023-02-13T06:15:27.431Z,8.91
2023-02-13T06:16:07.345Z,8.96
2023-02-13T06:16:47.444Z,8.89
2023-02-13T06:17:27.442Z,8.95
2023-02-13T06:18:07.438Z,9.05
2023-02-13T06:18:48.402Z,9.03
2023-02-13T06:19:28.392Z,9.17
2023-02-13T06:20:08.406Z,9.05
2023-02-13T06:20:48.472Z,8.97
2023-02-13T06:21:28.400Z,8.96
2023-02-13T06:22:08.386Z,8.97
2023-02-13T06:22:49.346Z,8.82
2023-02-13T06:23:29.456Z,9.06
2023-02-13T06:24:11.380Z,9.01
2023-02-13T06:24:51.428Z,9.00
2023-02-13T06:25:32.358Z,8.94
2023-02-13T06:26:14.389Z,8.96
2023-02-13T06:26:55.370Z,8.93
2023-02-13T06:27:35.443Z,8.92
2023-02-13T06:28:16.405Z,8.95
2023-02-13T06:28:56.388Z,8.96
2023-02-13T06:29:38.351Z,8.94
2023-02-13T06:30:19.416Z,8.91
2023-02-13T06:31:00.715Z,9.01
2023-02-13T06:31:41.409Z,8.93
2023-02-13T06:32:21.322Z,8.89
2023-02-13T06:33:01.415Z,8.93
2023-02-13T06:33:41.342Z,8.93
2023-02-13T06:34:21.426Z,8.92
2023-02-13T06:35:04.550Z,8.88
2023-02-13T06:35:45.428Z,8.92
2023-02-13T06:36:25.328Z,8.92
2023-02-13T06:37:05.445Z,8.91
2023-02-13T06:37:46.406Z,8.89
2023-02-13T06:38:26.401Z,8.91
2023-02-13T06:39:07.396Z,8.90
2023-02-13T06:39:47.395Z,8.72
2023-02-13T06:40:27.381Z,8.80
2023-02-13T06:41:08.432Z,8.94
2023-02-13T06:41:48.336Z,8.98
2023-02-13T06:42:42.348Z,8.97
2023-02-13T06:43:37.126Z,8.76
2023-02-13T06:44:32.337Z,8.88
2023-02-13T06:45:27.362Z,9.01
2023-02-13T06:46:22.476Z,8.94
2023-02-13T06:47:16.376Z,8.80
2023-02-13T06:48:10.346Z,8.84
2023-02-13T06:49:04.319Z,8.77
2023-02-13T06:49:58.400Z,8.81
2023-02-13T06:50:45.324Z,8.59
2023-02-13T06:51:19.470Z,8.71
2023-02-13T06:52:06.278Z,8.84
2023-02-13T06:52:40.378Z,8.85
2023-02-13T06:53:31.336Z,8.94
2023-02-13T06:54:05.382Z,8.86
2023-02-13T06:54:52.326Z,8.86
2023-02-13T06:55:26.442Z,8.93
2023-02-13T06:56:13.067Z,8.98
2023-02-13T06:56:53.369Z,9.10
2023-02-13T06:57:33.286Z,9.08
2023-02-13T06:58:13.431Z,9.12
2023-02-13T06:58:53.319Z,9.03
2023-02-13T06:59:33.386Z,9.06
2023-02-13T07:00:15.340Z,8.73
2023-02-13T07:00:56.669Z,8.90
2023-02-13T07:02:40.346Z,9.27
2023-02-13T07:03:14.434Z,9.12
2023-02-13T07:04:01.351Z,8.96
2023-02-13T07:04:35.402Z,9.15
2023-02-13T07:05:22.322Z,9.06
2023-02-13T07:05:56.589Z,9.14
2023-02-13T07:06:43.297Z,9.09
2023-02-13T07:07:17.362Z,9.00
2023-02-13T07:08:05.345Z,9.04
2023-02-13T07:08:39.386Z,8.98
2023-02-13T07:09:26.283Z,9.12
2023-02-13T07:10:00.415Z,9.05
2023-02-13T07:10:48.325Z,8.96
2023-02-13T07:11:26.405Z,9.00
2023-02-13T07:12:14.343Z,8.88
2023-02-13T07:13:03.639Z,8.88
2023-02-13T07:13:45.305Z,8.98
2023-02-13T07:14:25.385Z,8.92
2023-02-13T07:15:05.280Z,8.90
2023-02-13T07:15:45.429Z,8.99
2023-02-13T07:16:26.343Z,8.92
2023-02-13T07:17:06.381Z,9.05
2023-02-13T07:17:46.252Z,8.91
2023-02-13T07:18:26.896Z,8.86
2023-02-13T07:19:07.317Z,8.93
2023-02-13T07:19:47.358Z,8.89
2023-02-13T07:20:28.343Z,8.97
2023-02-13T07:21:08.343Z,8.97
2023-02-13T07:21:48.275Z,9.06
2023-02-13T07:22:28.350Z,9.12
2023-02-13T07:23:11.273Z,8.76
2023-02-13T07:23:51.348Z,8.77
2023-02-13T07:24:32.503Z,8.82
2023-02-13T07:25:13.356Z,8.91
2023-02-13T07:25:53.338Z,8.83
2023-02-13T07:26:33.346Z,8.94
2023-02-13T07:27:13.296Z,8.92
2023-02-13T07:27:53.364Z,9.08
2023-02-13T07:28:35.353Z,8.84
2023-02-13T07:29:15.346Z,8.92
2023-02-13T07:29:55.284Z,8.93
2023-02-13T07:30:36.377Z,8.99
2023-02-13T07:31:17.348Z,8.86
2023-02-13T07:31:57.354Z,8.90
2023-02-13T07:32:38.301Z,8.84
2023-02-13T07:33:18.373Z,8.80
2023-02-13T07:33:58.260Z,8.83
2023-02-13T07:34:41.125Z,8.74
2023-02-13T07:35:25.285Z,8.92
2023-02-13T07:36:05.418Z,8.90
2023-02-13T07:36:46.273Z,8.96
2023-02-13T07:37:26.313Z,8.98
2023-02-13T07:38:07.451Z,9.00
2023-02-13T07:38:47.367Z,8.80
2023-02-13T07:39:27.276Z,8.90
2023-02-13T07:40:07.392Z,8.94
2023-02-13T07:40:48.274Z,9.02
2023-02-13T07:41:28.306Z,8.94
2023-02-13T07:42:08.264Z,8.86
2023-02-13T07:42:48.356Z,9.05
2023-02-13T07:43:28.267Z,8.95
2023-02-13T07:44:08.452Z,9.12
2023-02-13T07:44:49.302Z,9.16
2023-02-13T07:45:29.367Z,9.05
2023-02-13T07:46:10.277Z,8.96
2023-02-13T07:46:50.404Z,9.01
2023-02-13T07:47:30.305Z,8.95
2023-02-13T07:48:10.364Z,9.10
2023-02-13T07:48:51.283Z,9.14
2023-02-13T07:49:32.315Z,9.09
2023-02-13T07:50:13.279Z,9.12
2023-02-13T07:50:53.350Z,8.98
2023-02-13T07:51:35.334Z,9.25
2023-02-13T07:52:15.396Z,9.19
2023-02-13T07:53:07.274Z,9.22
2023-02-13T07:53:47.347Z,9.41
2023-02-13T07:54:27.313Z,9.26
2023-02-13T07:55:07.428Z,9.04
2023-02-13T07:55:47.264Z,9.37
2023-02-13T07:56:27.346Z,9.30
2023-02-13T07:57:08.319Z,9.28
2023-02-13T07:57:48.333Z,9.13
2023-02-13T07:58:28.305Z,9.29
2023-02-13T07:59:08.356Z,9.32
2023-02-13T07:59:48.299Z,9.49
2023-02-13T08:00:29.353Z,9.49
2023-02-13T08:01:20.250Z,9.56
2023-02-13T08:02:00.311Z,9.32
2023-02-13T08:02:40.273Z,9.41
2023-02-13T08:03:20.328Z,9.21
2023-02-13T08:04:00.294Z,9.31
2023-02-13T08:04:40.389Z,9.46
2023-02-13T08:05:21.248Z,9.42
2023-02-13T08:06:01.323Z,9.28
2023-02-13T08:06:41.277Z,9.11
2023-02-13T08:07:23.292Z,9.15
2023-02-13T08:08:03.270Z,9.21
2023-02-13T08:08:43.304Z,9.22
2023-02-13T08:09:46.231Z,9.15
2023-02-13T08:10:46.293Z,9.00
2023-02-13T08:11:53.237Z,8.88
2023-02-13T08:12:34.148Z,8.93
2023-02-13T08:13:15.304Z,9.05
2023-02-13T08:13:56.330Z,9.04
2023-02-13T08:14:36.269Z,9.01
2023-02-13T08:15:19.288Z,8.91
2023-02-13T08:15:59.456Z,8.90
2023-02-13T08:16:40.389Z,8.93
2023-02-13T08:17:20.280Z,9.02
2023-02-13T08:18:01.317Z,9.00
2023-02-13T08:18:41.262Z,9.05
2023-02-13T08:19:21.289Z,9.02
2023-02-13T08:20:01.235Z,8.89
2023-02-13T08:20:41.335Z,9.16
2023-02-13T08:21:22.248Z,9.08
2023-02-13T08:22:04.344Z,8.84
2023-02-13T08:22:46.213Z,8.86
2023-02-13T08:23:26.887Z,9.04
2023-02-13T08:24:08.278Z,9.13
2023-02-13T08:24:48.319Z,9.09
2023-02-13T08:25:28.264Z,9.05
2023-02-13T08:26:09.349Z,8.96
2023-02-13T08:26:50.209Z,9.11
2023-02-13T08:27:44.238Z,9.00
2023-02-13T08:28:38.306Z,8.95
2023-02-13T08:29:25.285Z,8.97
2023-02-13T08:29:59.288Z,9.09
2023-02-13T08:30:46.375Z,8.88
2023-02-13T08:31:20.520Z,9.05
2023-02-13T08:32:07.335Z,9.11
2023-02-13T08:32:53.560Z,8.98
2023-02-13T08:33:41.216Z,8.91
2023-02-13T08:34:20.267Z,9.06
2023-02-13T08:35:15.244Z,8.85
2023-02-13T08:36:04.297Z,8.98
2023-02-13T08:36:44.215Z,8.92
2023-02-13T08:37:25.330Z,8.75
2023-02-13T08:38:12.209Z,9.00
2023-02-13T08:38:55.270Z,9.04
2023-02-13T08:39:36.207Z,8.95
2023-02-13T08:40:24.606Z,9.00
2023-02-13T08:41:20.226Z,8.93
2023-02-13T08:42:16.036Z,8.64
2023-02-13T08:43:18.255Z,8.78
2023-02-13T08:44:12.246Z,8.89
2023-02-13T08:45:06.234Z,8.62
2023-02-13T08:45:47.293Z,8.36
2023-02-13T08:46:28.370Z,8.44
2023-02-13T08:47:10.203Z,8.64
2023-02-13T08:47:50.309Z,8.76
2023-02-13T08:48:30.188Z,8.51
2023-02-13T08:49:10.299Z,8.69
2023-02-13T08:49:51.217Z,8.37
2023-02-13T08:50:31.340Z,8.54
2023-02-13T08:51:17.262Z,8.42
2023-02-13T08:51:57.263Z,8.51
2023-02-13T08:52:37.221Z,8.57
2023-02-13T08:53:17.250Z,8.54
2023-02-13T08:53:58.184Z,8.43
2023-02-13T08:54:40.267Z,8.49
2023-02-13T08:55:20.204Z,8.60
2023-02-13T08:56:02.337Z,8.73
2023-02-13T08:56:44.257Z,8.73
2023-02-13T08:57:24.271Z,8.73
2023-02-13T08:58:11.214Z,8.74
2023-02-13T08:58:51.310Z,8.59
2023-02-13T08:59:31.184Z,8.49
2023-02-13T09:00:12.254Z,8.64
2023-02-13T09:00:52.245Z,8.91
2023-02-13T09:01:32.401Z,8.94
2023-02-13T09:03:15.360Z,8.81
2023-02-13T09:03:49.293Z,8.94
2023-02-13T09:04:36.223Z,9.03
2023-02-13T09:05:16.298Z,8.74
2023-02-13T09:05:56.336Z,8.90
2023-02-13T09:06:37.262Z,8.84
2023-02-13T09:07:17.199Z,8.88
2023-02-13T09:07:57.246Z,8.91
2023-02-13T09:08:38.222Z,8.88
2023-02-13T09:09:18.570Z,8.84
2023-02-13T09:10:00.449Z,8.67
2023-02-13T09:10:41.338Z,8.85
2023-02-13T09:11:21.178Z,8.82
2023-02-13T09:12:01.278Z,8.86
2023-02-13T09:12:41.193Z,8.89
2023-02-13T09:13:21.235Z,9.03
2023-02-13T09:14:01.237Z,9.03
2023-02-13T09:14:42.243Z,8.95
2023-02-13T09:15:22.492Z,8.85
2023-02-13T09:16:07.303Z,8.80
2023-02-13T09:16:47.289Z,8.86
2023-02-13T09:17:27.270Z,8.86
2023-02-13T09:18:07.207Z,8.62
2023-02-13T09:18:48.611Z,8.90
2023-02-13T09:19:29.241Z,8.86
2023-02-13T09:20:09.275Z,8.92
2023-02-13T09:20:49.156Z,9.11
2023-02-13T09:21:31.279Z,9.22
2023-02-13T09:22:11.197Z,9.08
2023-02-13T09:22:52.254Z,9.15
2023-02-13T09:23:32.161Z,9.14
2023-02-13T09:24:17.264Z,9.12
2023-02-13T09:24:57.211Z,9.01
2023-02-13T09:25:37.232Z,8.98
2023-02-13T09:26:20.874Z,9.15
2023-02-13T09:27:02.239Z,9.12
2023-02-13T09:27:44.190Z,9.31
2023-02-13T09:28:24.332Z,9.38
2023-02-13T09:29:04.237Z,9.22
2023-02-13T09:29:44.303Z,9.22
2023-02-13T09:30:30.370Z,9.26
2023-02-13T09:31:28.482Z,9.47
2023-02-13T09:32:12.240Z,9.38
2023-02-13T09:32:52.339Z,9.41
2023-02-13T09:33:33.192Z,9.43
2023-02-13T09:34:13.273Z,9.37
2023-02-13T09:34:53.153Z,9.42
2023-02-13T09:35:41.215Z,9.17
2023-02-13T09:36:21.261Z,9.32
2023-02-13T09:37:09.180Z,9.40
2023-02-13T09:37:42.927Z,9.32
2023-02-13T09:38:30.160Z,9.32
2023-02-13T09:39:04.081Z,9.18
2023-02-13T09:39:52.177Z,9.35
2023-02-13T09:41:06.262Z,9.34
2023-02-13T09:41:49.263Z,9.18
2023-02-13T09:42:38.202Z,9.11
2023-02-13T09:43:36.264Z,9.24
2023-02-13T09:44:40.185Z,9.12
2023-02-13T09:45:21.221Z,9.05
2023-02-13T09:46:06.220Z,9.17
2023-02-13T09:46:48.477Z,9.13
2023-02-13T09:47:43.171Z,9.11
2023-02-13T09:48:45.480Z,9.07
2023-02-13T09:49:39.148Z,9.09
2023-02-13T09:50:30.327Z,9.15
2023-02-13T09:51:11.204Z,9.16
2023-02-13T09:51:54.341Z,9.13
2023-02-13T09:52:41.169Z,9.08
2023-02-13T09:53:29.398Z,9.08
2023-02-13T09:54:14.160Z,9.07
2023-02-13T09:54:54.222Z,8.94
2023-02-13T09:55:44.139Z,9.05
2023-02-13T09:56:56.193Z,9.17
2023-02-13T09:58:17.178Z,9.02
2023-02-13T09:59:20.124Z,8.82
2023-02-13T10:00:27.165Z,9.13
2023-02-13T10:01:38.186Z,8.95
2023-02-13T10:02:50.172Z,9.01
2023-02-13T10:04:15.217Z,8.91
2023-02-13T10:05:27.218Z,9.08
2023-02-13T10:06:15.365Z,8.96
2023-02-13T10:07:29.090Z,9.04
2023-02-13T10:08:46.215Z,8.73
2023-02-13T10:09:28.402Z,8.71